Nissho Maru No.18 — JL6369 — position and weather

sailwx.info

Track history (hours):
 
Tides and Currents Weather Stations Pressure Air Temp Water Temp Dewpoint Dewpoint Depression Visibility Wind Speed Wind Dir Waves Ship Positions

Nissho Maru No.18

Last reported at 2015-Aug-29 06:13 UTC. Time now 2015-Aug-29 09:28 UTC.
Position N 35°05' E 139°40'.

Length 65 m; draft 4 m.

Type: Tanker. MMSI: 431500465.

Date/timePositionNaut miles runAvg speedWind from/ knotsBaromVisibWave heightAir tempDewpointWater temp
2015-Aug-29 06:13N 35°05' E 139°40'811.3
2015-Aug-29 05:33N 35°11' E 139°45'1010.0
2015-Aug-29 04:34N 35°21' E 139°42'1010.3
2015-Aug-29 03:34N 35°29' E 139°50'9 8.5
2015-Aug-29 02:33N 35°29' E 140°01'0 0.0
2015-Aug-29 01:33N 35°29' E 140°01'0 0.0
2015-Aug-29 00:33N 35°29' E 140°01'0 0.0
2015-Aug-28 23:33N 35°29' E 140°01'0 0.0
2015-Aug-28 22:33N 35°29' E 140°01'1 1.2
2015-Aug-28 21:33N 35°29' E 139°60'4 4.3
2015-Aug-28 20:32N 35°28' E 139°55'0 0.0
2015-Aug-28 19:32N 35°28' E 139°55'1 1.0
2015-Aug-28 18:33N 35°28' E 139°53'1010.2
2015-Aug-28 17:33N 35°21' E 139°45'1010.3
2015-Aug-28 16:33N 35°11' E 139°46'247 6.0
2015-Aug-26 23:33N 34°40' E 134°47'10 9.8
2015-Aug-26 22:33N 34°38' E 134°58'9 9.1
2015-Aug-26 21:33N 34°30' E 135°04'1411.2
2015-Aug-26 20:18N 34°16' E 134°59'911.6
2015-Aug-26 19:33N 34°08' E 135°00'  
2015-Aug-24 04:27N 34°52' E 139°11'2111.2
2015-Aug-24 02:33N 35°03' E 139°33'1211.6
2015-Aug-24 01:33N 35°10' E 139°44'1110.7
2015-Aug-24 00:33N 35°20' E 139°42'1110.8
2015-Aug-23 23:34N 35°29' E 139°51'4 4.0
2015-Aug-23 22:32N 35°29' E 139°56'0 0.0
2015-Aug-23 21:29N 35°29' E 139°56'0 0.0
2015-Aug-23 20:31N 35°29' E 139°56'0 0.0
2015-Aug-23 19:31N 35°29' E 139°56'0 0.0
2015-Aug-23 18:31N 35°29' E 139°56'0 0.0
2015-Aug-23 17:31N 35°29' E 139°56'0 0.0
2015-Aug-23 16:28N 35°29' E 139°56'0 0.0
2015-Aug-23 15:31N 35°29' E 139°56'0 0.0
2015-Aug-23 14:28N 35°29' E 139°56'0 0.0
2015-Aug-23 13:31N 35°29' E 139°56'0 0.0
2015-Aug-23 12:32N 35°29' E 139°56'0 0.0
2015-Aug-23 11:32N 35°29' E 139°56'0 0.0
2015-Aug-23 10:32N 35°29' E 139°56'0 0.0
2015-Aug-23 09:32N 35°29' E 139°56'0 0.0
2015-Aug-23 08:32N 35°29' E 139°56'0 0.0
2015-Aug-23 07:32N 35°29' E 139°56'0 0.0
2015-Aug-23 06:32N 35°29' E 139°56'0 0.0
2015-Aug-23 05:29N 35°29' E 139°56'0 0.0
2015-Aug-23 04:29N 35°29' E 139°56'0 0.0
2015-Aug-23 03:29N 35°29' E 139°56'0 0.1
2015-Aug-23 02:30N 35°29' E 139°56'0 0.0
2015-Aug-23 01:30N 35°29' E 139°56'0 0.0
2015-Aug-23 00:33N 35°29' E 139°56'0 0.0
2015-Aug-22 23:21N 35°29' E 139°56'0 0.0
2015-Aug-22 22:33N 35°29' E 139°56'0 0.0
2015-Aug-22 21:33N 35°29' E 139°56'0 0.0
2015-Aug-22 20:33N 35°29' E 139°56'0 0.0
2015-Aug-22 19:33N 35°29' E 139°56'0 0.0
2015-Aug-22 18:33N 35°29' E 139°56'0 0.0
2015-Aug-22 17:30N 35°29' E 139°56'0 0.1
2015-Aug-22 16:33N 35°29' E 139°56'0 0.0
2015-Aug-22 15:33N 35°29' E 139°56'0 0.0
2015-Aug-22 14:33N 35°29' E 139°56'0 0.0
2015-Aug-22 13:33N 35°29' E 139°56'0 0.1
2015-Aug-22 12:33N 35°29' E 139°56'0 0.1
2015-Aug-22 11:33N 35°29' E 139°56'0 0.1
2015-Aug-22 10:21N 35°29' E 139°56'0 0.0
2015-Aug-22 09:27N 35°29' E 139°56'0 0.0
2015-Aug-22 08:30N 35°29' E 139°56'0 0.0
2015-Aug-22 07:33N 35°29' E 139°56'0 0.0
2015-Aug-22 06:33N 35°29' E 139°56'0 0.0
2015-Aug-22 05:33N 35°29' E 139°56'0 0.0
2015-Aug-22 04:33N 35°29' E 139°56'4 4.3
2015-Aug-22 03:33N 35°29' E 140°01'0 0.0
2015-Aug-22 02:33N 35°29' E 140°01'0 0.0
2015-Aug-22 01:33N 35°29' E 140°01'0 0.0
2015-Aug-22 00:33N 35°29' E 140°01'0 0.0
2015-Aug-21 23:33N 35°29' E 140°01'0 0.1
2015-Aug-21 22:33N 35°29' E 140°01'4 4.1
2015-Aug-21 21:32N 35°28' E 139°56'0 0.0
2015-Aug-21 20:32N 35°28' E 139°56'0 0.0
2015-Aug-21 19:32N 35°28' E 139°56'0 0.0
2015-Aug-21 18:14N 35°28' E 139°56'0 0.0
2015-Aug-21 17:29N 35°28' E 139°56'0 0.0
2015-Aug-21 16:32N 35°28' E 139°56'9 9.6
2015-Aug-21 15:33N 35°23' E 139°46'10 9.9
2015-Aug-21 14:33N 35°13' E 139°47'1111.2
2015-Aug-21 13:33N 35°03' E 139°41'236 9.1
2015-Aug-20 11:33N 34°20' E 134°59'1211.2
2015-Aug-20 10:31N 34°31' E 135°02'  
Track history (hours):
 
Tides and Currents Weather Stations Pressure Air Temp Water Temp Dewpoint Dewpoint Depression Visibility Wind Speed Wind Dir Waves Ship Positions

Nissho Maru No.18

Last reported at 2015-Aug-29 06:13 UTC. Time now 2015-Aug-29 09:28 UTC.
Position N 35°05' E 139°40'.

Length 65 m; draft 4 m.

Type: Tanker. MMSI: 431500465.

Date/timePositionNaut miles runAvg speedWind from/ knotsBaromVisibWave heightAir tempDewpointWater temp
2015-Aug-29 06:13N 35°05' E 139°40'811.3
2015-Aug-29 05:33N 35°11' E 139°45'1010.0
2015-Aug-29 04:34N 35°21' E 139°42'1010.3
2015-Aug-29 03:34N 35°29' E 139°50'9 8.5
2015-Aug-29 02:33N 35°29' E 140°01'0 0.0
2015-Aug-29 01:33N 35°29' E 140°01'0 0.0
2015-Aug-29 00:33N 35°29' E 140°01'0 0.0
2015-Aug-28 23:33N 35°29' E 140°01'0 0.0
2015-Aug-28 22:33N 35°29' E 140°01'1 1.2
2015-Aug-28 21:33N 35°29' E 139°60'4 4.3
2015-Aug-28 20:32N 35°28' E 139°55'0 0.0
2015-Aug-28 19:32N 35°28' E 139°55'1 1.0
2015-Aug-28 18:33N 35°28' E 139°53'1010.2
2015-Aug-28 17:33N 35°21' E 139°45'1010.3
2015-Aug-28 16:33N 35°11' E 139°46'247 6.0
2015-Aug-26 23:33N 34°40' E 134°47'10 9.8
2015-Aug-26 22:33N 34°38' E 134°58'9 9.1
2015-Aug-26 21:33N 34°30' E 135°04'1411.2
2015-Aug-26 20:18N 34°16' E 134°59'911.6
2015-Aug-26 19:33N 34°08' E 135°00'  
2015-Aug-24 04:27N 34°52' E 139°11'2111.2
2015-Aug-24 02:33N 35°03' E 139°33'1211.6
2015-Aug-24 01:33N 35°10' E 139°44'1110.7
2015-Aug-24 00:33N 35°20' E 139°42'1110.8
2015-Aug-23 23:34N 35°29' E 139°51'4 4.0
2015-Aug-23 22:32N 35°29' E 139°56'0 0.0
2015-Aug-23 21:29N 35°29' E 139°56'0 0.0
2015-Aug-23 20:31N 35°29' E 139°56'0 0.0
2015-Aug-23 19:31N 35°29' E 139°56'0 0.0
2015-Aug-23 18:31N 35°29' E 139°56'0 0.0
2015-Aug-23 17:31N 35°29' E 139°56'0 0.0
2015-Aug-23 16:28N 35°29' E 139°56'0 0.0
2015-Aug-23 15:31N 35°29' E 139°56'0 0.0
2015-Aug-23 14:28N 35°29' E 139°56'0 0.0
2015-Aug-23 13:31N 35°29' E 139°56'0 0.0
2015-Aug-23 12:32N 35°29' E 139°56'0 0.0
2015-Aug-23 11:32N 35°29' E 139°56'0 0.0
2015-Aug-23 10:32N 35°29' E 139°56'0 0.0
2015-Aug-23 09:32N 35°29' E 139°56'0 0.0
2015-Aug-23 08:32N 35°29' E 139°56'0 0.0
2015-Aug-23 07:32N 35°29' E 139°56'0 0.0
2015-Aug-23 06:32N 35°29' E 139°56'0 0.0
2015-Aug-23 05:29N 35°29' E 139°56'0 0.0
2015-Aug-23 04:29N 35°29' E 139°56'0 0.0
2015-Aug-23 03:29N 35°29' E 139°56'0 0.1
2015-Aug-23 02:30N 35°29' E 139°56'0 0.0
2015-Aug-23 01:30N 35°29' E 139°56'0 0.0
2015-Aug-23 00:33N 35°29' E 139°56'0 0.0
2015-Aug-22 23:21N 35°29' E 139°56'0 0.0
2015-Aug-22 22:33N 35°29' E 139°56'0 0.0
2015-Aug-22 21:33N 35°29' E 139°56'0 0.0
2015-Aug-22 20:33N 35°29' E 139°56'0 0.0
2015-Aug-22 19:33N 35°29' E 139°56'0 0.0
2015-Aug-22 18:33N 35°29' E 139°56'0 0.0
2015-Aug-22 17:30N 35°29' E 139°56'0 0.1
2015-Aug-22 16:33N 35°29' E 139°56'0 0.0
2015-Aug-22 15:33N 35°29' E 139°56'0 0.0
2015-Aug-22 14:33N 35°29' E 139°56'0 0.0
2015-Aug-22 13:33N 35°29' E 139°56'0 0.1
2015-Aug-22 12:33N 35°29' E 139°56'0 0.1
2015-Aug-22 11:33N 35°29' E 139°56'0 0.1
2015-Aug-22 10:21N 35°29' E 139°56'0 0.0
2015-Aug-22 09:27N 35°29' E 139°56'0 0.0
2015-Aug-22 08:30N 35°29' E 139°56'0 0.0
2015-Aug-22 07:33N 35°29' E 139°56'0 0.0
2015-Aug-22 06:33N 35°29' E 139°56'0 0.0
2015-Aug-22 05:33N 35°29' E 139°56'0 0.0
2015-Aug-22 04:33N 35°29' E 139°56'4 4.3
2015-Aug-22 03:33N 35°29' E 140°01'0 0.0
2015-Aug-22 02:33N 35°29' E 140°01'0 0.0
2015-Aug-22 01:33N 35°29' E 140°01'0 0.0
2015-Aug-22 00:33N 35°29' E 140°01'0 0.0
2015-Aug-21 23:33N 35°29' E 140°01'0 0.1
2015-Aug-21 22:33N 35°29' E 140°01'4 4.1
2015-Aug-21 21:32N 35°28' E 139°56'0 0.0
2015-Aug-21 20:32N 35°28' E 139°56'0 0.0
2015-Aug-21 19:32N 35°28' E 139°56'0 0.0
2015-Aug-21 18:14N 35°28' E 139°56'0 0.0
2015-Aug-21 17:29N 35°28' E 139°56'0 0.0
2015-Aug-21 16:32N 35°28' E 139°56'9 9.6
2015-Aug-21 15:33N 35°23' E 139°46'10 9.9
2015-Aug-21 14:33N 35°13' E 139°47'1111.2
2015-Aug-21 13:33N 35°03' E 139°41'236 9.1
2015-Aug-20 11:33N 34°20' E 134°59'1211.2
2015-Aug-20 10:31N 34°31' E 135°02'  

Dump ship's entire track history